Terminal Aerodrome Forecast
Issued by NWS Sterling, VA

Current Version | Previous Version | Text Only | Print | Product List | Glossary Off
Versions: 1 2 3 4 5 6 7 8 9 10 11 12 13

000
FTUS41 KLWX 180500
TAFMRB
TAF
KMRB 180532Z 1806/1906 29011KT P6SM BKN045
     FM181100 30009KT P6SM SCT130
     FM181500 30012G20KT P6SM SCT250
     FM182200 31010KT P6SM SCT110
     FM190200 30007KT P6SM BKN110=

USA.gov is the U.S. government's official web portal to all federal, state and local government web resources and services.